Time;durP1;ratioP1;P1;durP2;ratioP2;P2;SDS_P1;SDS_P2;PMS_P1;PMS_P2;Temp;Humidity;BMP_temperature;BMP_pressure;BME280_temperature;BME280_humidity;BME280_pressure;Samples;Min_cycle;Max_cycle;Signal;HPM_P1;HPM_P2
2022/11/06 00:02:02;;;;;;;6.87;1.00;;;26.20;99.90;;;;;;5071120;28;20272;-69
2022/11/06 00:04:30;;;;;;;7.30;1.20;;;26.00;99.90;;;;;;5071225;28;20187;-68
2022/11/06 00:06:58;;;;;;;3.53;0.90;;;26.80;99.90;;;;;;5071367;28;20204;-69
2022/11/06 00:09:25;;;;;;;4.07;1.10;;;26.90;99.90;;;;;;5071301;28;20219;-68
2022/11/06 00:11:53;;;;;;;2.57;0.93;;;27.20;99.90;;;;;;5070559;28;20289;-70
2022/11/06 00:14:21;;;;;;;3.97;1.00;;;26.90;99.90;;;;;;5070386;28;20183;-69
2022/11/06 00:16:49;;;;;;;3.30;1.17;;;26.60;99.90;;;;;;5063023;28;20268;-72
2022/11/06 00:19:17;;;;;;;3.30;1.13;;;26.70;99.90;;;;;;5063713;28;20255;-70
2022/11/06 00:21:45;;;;;;;6.37;1.20;;;27.30;99.90;;;;;;5071286;28;20275;-72
2022/11/06 00:24:14;;;;;;;4.47;1.00;;;27.10;99.90;;;;;;5072485;28;20634;-73
2022/11/06 00:26:43;;;;;;;3.43;1.10;;;27.40;99.90;;;;;;5074689;28;20184;-72
2022/11/06 00:29:14;;;;;;;3.93;1.00;;;27.80;99.90;;;;;;5074520;28;20227;-73
2022/11/06 00:31:42;;;;;;;4.20;1.20;;;27.60;99.90;;;;;;5034785;28;20181;-72
2022/11/06 00:34:10;;;;;;;2.63;1.10;;;28.30;99.90;;;;;;5035541;28;20303;-71
2022/11/06 00:36:39;;;;;;;3.87;1.23;;;28.90;99.90;;;;;;5069850;28;20192;-70
2022/11/06 00:39:07;;;;;;;2.83;1.60;;;29.00;99.90;;;;;;5075750;28;20641;-72
2022/11/06 00:41:34;;;;;;;3.10;1.50;;;28.80;99.90;;;;;;5074399;28;20266;-71
2022/11/06 00:44:03;;;;;;;2.73;1.40;;;28.70;98.30;;;;;;5070796;28;20179;-67
2022/11/06 00:46:31;;;;;;;3.23;1.77;;;28.20;99.60;;;;;;5075367;28;20171;-68
2022/11/06 00:48:59;;;;;;;4.20;1.60;;;27.80;99.80;;;;;;5075608;28;20211;-68
2022/11/06 00:51:34;;;;;;;3.23;1.83;;;28.20;99.90;;;;;;5076055;28;20172;-67
2022/11/06 00:54:04;;;;;;;6.50;1.77;;;28.70;99.90;;;;;;5075989;28;20589;-68
2022/11/06 00:56:33;;;;;;;3.37;1.80;;;28.50;99.90;;;;;;5076483;28;20194;-68
2022/11/06 00:59:03;;;;;;;5.17;1.53;;;28.20;99.90;;;;;;5075817;28;20180;-68
2022/11/06 01:01:40;;;;;;;4.47;1.60;;;28.30;99.30;;;;;;5075361;28;20614;-71
2022/11/06 01:04:12;;;;;;;5.07;2.20;;;27.30;99.90;;;;;;5075631;28;20168;-70
2022/11/06 01:06:43;;;;;;;7.67;1.90;;;27.80;99.90;;;;;;5075625;28;20168;-68
2022/11/06 01:09:17;;;;;;;6.70;2.50;;;28.70;98.90;;;;;;5075227;28;20568;-68
2022/11/06 01:11:48;;;;;;;4.23;1.90;;;28.50;99.30;;;;;;5075566;28;20172;-68
2022/11/06 01:14:18;;;;;;;5.33;2.83;;;27.70;99.40;;;;;;5075628;28;20215;-69
2022/11/06 01:16:47;;;;;;;3.20;1.50;;;28.10;99.90;;;;;;5075453;28;20595;-74
2022/11/06 01:19:17;;;;;;;3.60;1.70;;;27.90;99.90;;;;;;5075241;28;20542;-73
2022/11/06 01:21:47;;;;;;;3.50;2.17;;;27.20;99.90;;;;;;5075543;28;20170;-73
2022/11/06 01:24:18;;;;;;;5.23;1.90;;;27.70;99.90;;;;;;5075570;28;20186;-72
2022/11/06 01:26:46;;;;;;;7.40;3.80;;;28.30;98.90;;;;;;5075537;28;20175;-73
2022/11/06 01:29:16;;;;;;;5.87;3.00;;;28.80;94.30;;;;;;5075210;28;20311;-72
2022/11/06 01:31:44;;;;;;;3.73;2.60;;;28.80;93.40;;;;;;5075272;28;20263;-72
2022/11/06 01:34:12;;;;;;;3.37;2.40;;;28.90;88.70;;;;;;5074897;28;20645;-74
2022/11/06 01:36:40;;;;;;;4.37;2.90;;;28.90;84.60;;;;;;5074414;28;20195;-72
2022/11/06 01:39:11;;;;;;;5.13;3.37;;;29.10;91.00;;;;;;5075030;28;20220;-73
2022/11/06 01:41:45;;;;;;;7.13;4.33;;;28.50;89.50;;;;;;5074199;28;20224;-74
2022/11/06 01:44:43;;;;;;;5.23;3.97;;;28.70;83.40;;;;;;5072484;28;20191;-72
2022/11/06 01:47:24;;;;;;;5.83;2.90;;;28.30;93.00;;;;;;5065606;28;20184;-72
2022/11/06 01:50:02;;;;;;;4.90;3.10;;;29.10;85.20;;;;;;5071068;28;20624;-76
2022/11/06 01:52:33;;;;;;;8.67;4.00;;;28.50;86.60;;;;;;5073491;28;20183;-78
2022/11/06 01:55:26;;;;;;;8.73;4.53;;;28.00;88.00;;;;;;5073100;28;20172;-76
2022/11/06 01:57:56;;;;;;;6.83;3.90;;;27.70;96.00;;;;;;5039774;28;20184;-75
2022/11/06 02:00:25;;;;;;;5.57;3.07;;;27.30;98.00;;;;;;5053085;28;20176;-70
2022/11/06 02:02:53;;;;;;;9.27;3.43;;;27.20;98.60;;;;;;5053312;28;20201;-76
2022/11/06 02:05:21;;;;;;;5.37;3.30;;;27.60;99.50;;;;;;5058629;28;20180;-73
2022/11/06 02:07:49;;;;;;;8.73;3.70;;;28.20;95.40;;;;;;5071359;28;20210;-71
2022/11/06 02:10:17;;;;;;;15.10;4.20;;;28.00;98.90;;;;;;5071357;28;20203;-76
2022/11/06 02:12:51;;;;;;;6.60;3.47;;;27.30;97.00;;;;;;5057351;28;20180;-75
2022/11/06 02:15:38;;;;;;;6.13;3.10;;;27.10;93.90;;;;;;5053042;28;20639;-74
2022/11/06 02:18:34;;;;;;;7.13;3.37;;;26.80;98.20;;;;;;5054281;28;20181;-77
2022/11/06 02:21:20;;;;;;;9.53;3.47;;;26.90;99.90;;;;;;5059736;28;20211;-76
2022/11/06 02:24:04;;;;;;;5.70;2.53;;;27.40;99.90;;;;;;5058350;28;20184;-76
2022/11/06 02:26:49;;;;;;;8.60;3.60;;;26.90;99.90;;;;;;5058045;28;20188;-72
2022/11/06 02:29:22;;;;;;;6.10;2.83;;;26.40;99.90;;;;;;5058298;28;20239;-70
2022/11/06 02:31:55;;;;;;;7.87;4.63;;;26.20;99.90;;;;;;5057929;28;20176;-72
2022/11/06 02:34:26;;;;;;;7.70;3.73;;;26.50;99.90;;;;;;5058554;28;20180;-76
2022/11/06 02:37:16;;;;;;;13.13;4.40;;;26.90;99.90;;;;;;5058199;28;20190;-76
2022/11/06 02:39:47;;;;;;;11.23;6.90;;;27.50;99.90;;;;;;5058272;28;20169;-75
2022/11/06 02:42:18;;;;;;;7.23;4.50;;;27.60;99.90;;;;;;5062578;28;20657;-76
2022/11/06 02:44:50;;;;;;;5.23;2.00;;;28.10;99.90;;;;;;5077498;28;20184;-71
2022/11/06 02:47:21;;;;;;;15.23;9.20;;;27.80;99.90;;;;;;5076258;28;20198;-70
2022/11/06 02:50:02;;;;;;;14.07;8.03;;;27.70;99.90;;;;;;5075158;28;20226;-72
2022/11/06 02:52:49;;;;;;;12.30;8.87;;;27.50;99.90;;;;;;5076793;28;20233;-75
2022/11/06 02:55:56;;;;;;;4.80;2.70;;;26.80;99.90;;;;;;5077284;28;20172;-75
2022/11/06 02:58:50;;;;;;;9.10;3.03;;;26.90;99.90;;;;;;5038639;28;20185;-72
2022/11/06 03:01:53;;;;;;;4.50;2.77;;;27.10;99.90;;;;;;5064619;28;20216;-74
2022/11/06 03:04:28;;;;;;;7.63;3.90;;;27.60;99.90;;;;;;5080760;28;20175;-71
2022/11/06 03:07:08;;;;;;;10.30;5.13;;;27.80;99.90;;;;;;5092639;28;20190;-70
2022/11/06 03:09:36;;;;;;;9.13;4.73;;;27.50;99.90;;;;;;5092572;28;20237;-74
2022/11/06 03:12:29;;;;;;;12.37;7.27;;;27.80;99.90;;;;;;5065078;28;20177;-79
2022/11/06 03:15:09;;;;;;;11.13;7.93;;;27.90;99.90;;;;;;5077193;28;20263;-72
2022/11/06 03:17:47;;;;;;;9.20;6.40;;;28.10;99.90;;;;;;5078832;28;20171;-77
2022/11/06 03:20:24;;;;;;;12.37;8.30;;;28.10;99.90;;;;;;5079397;28;20156;-76
2022/11/06 03:23:11;;;;;;;9.07;6.80;;;28.20;99.90;;;;;;5081561;28;20266;-74
2022/11/06 03:25:46;;;;;;;14.97;8.90;;;28.20;99.90;;;;;;5086691;28;20204;-71
2022/11/06 03:28:35;;;;;;;13.87;9.97;;;27.90;99.90;;;;;;5063236;28;20214;-78
2022/11/06 03:31:08;;;;;;;18.90;11.50;;;27.80;99.90;;;;;;5082871;28;20176;-76
2022/11/06 03:33:43;;;;;;;42.00;26.27;;;27.70;99.90;;;;;;5081385;28;20188;-79
2022/11/06 03:36:19;;;;;;;10.27;7.30;;;27.60;99.90;;;;;;5080809;28;20207;-81
2022/11/06 03:39:03;;;;;;;13.03;9.77;;;27.70;99.90;;;;;;5080409;28;20175;-81
2022/11/06 03:41:48;;;;;;;21.67;15.63;;;27.50;99.90;;;;;;5079971;28;20184;-77
2022/11/06 03:44:21;;;;;;;6.97;4.13;;;27.60;99.90;;;;;;5056751;28;20720;-78
2022/11/06 03:46:55;;;;;;;8.03;4.37;;;27.30;99.90;;;;;;5076378;28;20229;-78
2022/11/06 03:49:29;;;;;;;8.37;4.57;;;27.30;99.90;;;;;;5078039;28;20685;-76
2022/11/06 03:52:24;;;;;;;6.90;3.43;;;27.40;99.90;;;;;;5080713;28;20174;-76
2022/11/06 03:55:07;;;;;;;8.03;3.80;;;27.50;99.90;;;;;;5082406;28;20231;-77
2022/11/06 03:57:53;;;;;;;11.30;4.70;;;27.30;99.90;;;;;;5081236;28;20172;-78
2022/11/06 04:00:22;;;;;;;12.90;5.53;;;27.30;99.90;;;;;;5084246;28;20168;-72
2022/11/06 04:03:05;;;;;;;8.70;4.83;;;27.70;99.90;;;;;;5044734;28;20573;-79
2022/11/06 04:05:45;;;;;;;11.53;7.40;;;27.50;99.90;;;;;;5047122;28;20177;-78
2022/11/06 04:14:01;;;;;;;14.03;9.70;;;27.70;99.90;;;;;;5081443;28;20195;-77
2022/11/06 04:16:41;;;;;;;10.00;7.40;;;27.70;99.90;;;;;;5081927;28;20172;-78
2022/11/06 04:19:17;;;;;;;6.90;5.37;;;27.60;99.90;;;;;;5082764;28;20176;-75
2022/11/06 04:22:19;;;;;;;6.00;3.80;;;27.60;99.90;;;;;;5080110;28;20187;-75
2022/11/06 04:28:03;;;;;;;8.07;3.70;;;27.30;99.90;;;;;;5080283;28;20194;-78
2022/11/06 04:30:55;;;;;;;5.73;3.30;;;27.20;99.90;;;;;;5081869;28;20214;-77
2022/11/06 04:33:27;;;;;;;7.10;3.03;;;27.50;99.90;;;;;;5080355;28;20183;-75
2022/11/06 04:36:22;;;;;;;5.93;2.60;;;27.40;99.90;;;;;;5095434;28;20556;-76
2022/11/06 04:39:09;;;;;;;5.43;2.60;;;27.20;99.90;;;;;;5067600;28;20200;-76
2022/11/06 04:41:54;;;;;;;5.13;1.83;;;27.30;99.90;;;;;;5095590;28;20188;-75
2022/11/06 04:44:49;;;;;;;3.23;1.80;;;27.00;99.90;;;;;;5080744;28;20644;-77
2022/11/06 04:47:19;;;;;;;5.10;2.73;;;27.00;99.90;;;;;;5079118;28;20191;-75
2022/11/06 04:49:50;;;;;;;4.90;2.40;;;26.80;99.90;;;;;;5078675;28;20230;-75
2022/11/06 04:52:28;;;;;;;3.93;2.27;;;26.60;99.90;;;;;;5080680;28;20182;-72
2022/11/06 04:54:58;;;;;;;5.20;2.10;;;26.60;99.90;;;;;;5079747;28;20259;-72
2022/11/06 04:57:26;;;;;;;6.03;2.23;;;26.60;99.90;;;;;;5080219;28;20184;-75
2022/11/06 04:59:55;;;;;;;5.33;1.97;;;26.50;99.90;;;;;;5080304;28;20180;-71
2022/11/06 05:02:24;;;;;;;8.23;2.10;;;26.70;99.90;;;;;;5078673;28;20328;-74
2022/11/06 05:04:52;;;;;;;3.53;1.90;;;26.60;99.90;;;;;;5074356;28;20236;-72
2022/11/06 05:07:20;;;;;;;6.60;1.50;;;26.50;99.90;;;;;;5065357;28;20180;-74
2022/11/06 05:09:48;;;;;;;3.90;1.67;;;26.30;99.90;;;;;;5081006;28;20578;-72
2022/11/06 05:12:16;;;;;;;5.83;1.47;;;26.40;99.90;;;;;;5097053;28;20180;-72
2022/11/06 05:14:44;;;;;;;3.73;1.17;;;26.50;99.90;;;;;;5081037;28;20198;-75
2022/11/06 05:17:11;;;;;;;5.10;1.53;;;26.60;99.90;;;;;;5080984;28;20183;-70
2022/11/06 05:19:39;;;;;;;4.40;1.37;;;26.80;99.90;;;;;;5079972;28;20219;-72
2022/11/06 05:24:54;;;;;;;5.53;1.30;;;26.30;99.90;;;;;;5083781;28;20195;-72
2022/11/06 05:27:22;;;;;;;5.60;1.60;;;26.10;99.90;;;;;;5082540;28;20188;-70
2022/11/06 05:29:50;;;;;;;6.67;1.40;;;25.80;99.90;;;;;;5080200;28;20306;-74
2022/11/06 05:32:18;;;;;;;5.10;1.40;;;25.30;99.90;;;;;;5084314;28;20192;-72
2022/11/06 05:34:46;;;;;;;3.50;1.10;;;25.40;99.90;;;;;;5084545;28;20194;-70
2022/11/06 05:37:13;;;;;;;6.17;1.70;;;25.70;99.90;;;;;;5099526;28;20183;-76
2022/11/06 05:39:41;;;;;;;5.23;1.07;;;25.80;99.90;;;;;;5099577;28;20191;-70
2022/11/06 05:42:09;;;;;;;4.77;1.30;;;25.70;99.90;;;;;;5083910;28;20175;-69
2022/11/06 05:44:37;;;;;;;2.83;1.10;;;25.60;99.90;;;;;;5082248;28;20614;-74
2022/11/06 05:47:05;;;;;;;2.77;1.10;;;25.40;99.90;;;;;;5079316;28;20192;-71
2022/11/06 05:49:33;;;;;;;5.67;1.00;;;25.40;99.90;;;;;;5081726;28;20227;-72
2022/11/06 05:52:01;;;;;;;7.77;1.27;;;25.20;99.90;;;;;;5081695;28;20270;-70
2022/11/06 05:54:28;;;;;;;3.23;0.90;;;25.00;99.90;;;;;;5075880;28;20698;-71
2022/11/06 05:56:56;;;;;;;3.70;1.07;;;25.20;99.90;;;;;;5080974;28;20182;-76
2022/11/06 05:59:24;;;;;;;3.17;1.00;;;25.20;99.90;;;;;;5081435;28;20215;-74
2022/11/06 06:01:52;;;;;;;4.30;1.00;;;25.40;99.90;;;;;;5080375;28;20223;-70
2022/11/06 06:04:20;;;;;;;6.40;1.10;;;25.50;99.90;;;;;;5076844;28;20188;-71
2022/11/06 06:06:47;;;;;;;2.60;1.00;;;25.40;99.90;;;;;;5081580;28;20232;-71
2022/11/06 06:09:16;;;;;;;3.37;1.17;;;25.20;99.90;;;;;;5080500;28;20211;-74
2022/11/06 06:11:43;;;;;;;2.93;1.10;;;25.00;99.90;;;;;;5096721;28;20728;-72
2022/11/06 06:14:11;;;;;;;3.80;1.27;;;24.70;99.90;;;;;;5077407;28;20179;-74
2022/11/06 06:16:39;;;;;;;3.17;1.00;;;24.70;99.90;;;;;;5081632;28;20183;-71
2022/11/06 06:19:07;;;;;;;6.73;1.30;;;24.60;99.90;;;;;;5081764;28;20292;-72
2022/11/06 06:21:35;;;;;;;2.90;1.00;;;24.30;99.90;;;;;;5079177;28;20186;-74
2022/11/06 06:24:04;;;;;;;4.93;1.30;;;24.30;99.90;;;;;;5080338;28;20260;-72
2022/11/06 06:26:32;;;;;;;4.43;1.10;;;24.30;99.90;;;;;;5093988;28;20180;-69
2022/11/06 06:29:01;;;;;;;3.30;1.20;;;24.20;99.90;;;;;;5077435;28;20223;-73
2022/11/06 06:31:29;;;;;;;4.03;1.10;;;23.90;99.90;;;;;;5076233;28;20192;-71
2022/11/06 06:33:56;;;;;;;6.43;1.20;;;23.70;99.90;;;;;;5076208;28;20183;-71
2022/11/06 06:36:24;;;;;;;8.40;1.37;;;23.80;99.90;;;;;;5075344;28;20178;-71
2022/11/06 06:38:52;;;;;;;5.93;1.30;;;23.80;99.90;;;;;;5091370;28;20240;-73
2022/11/06 06:41:20;;;;;;;3.67;1.23;;;24.00;99.90;;;;;;5074750;28;20200;-71
2022/11/06 06:43:51;;;;;;;2.37;0.87;;;24.10;99.90;;;;;;5077035;28;20177;-73
2022/11/06 06:46:19;;;;;;;5.30;1.00;;;23.90;99.90;;;;;;5036210;28;20176;-68
2022/11/06 06:48:47;;;;;;;5.90;1.70;;;23.80;99.90;;;;;;5035374;28;20290;-71
2022/11/06 06:51:15;;;;;;;6.77;1.37;;;23.70;99.90;;;;;;5033977;28;20199;-72
2022/11/06 06:53:43;;;;;;;4.13;1.20;;;23.50;99.90;;;;;;5038770;28;20650;-74
2022/11/06 06:56:11;;;;;;;11.50;1.37;;;23.30;99.90;;;;;;5078441;28;20184;-75
2022/11/06 06:58:38;;;;;;;3.60;1.40;;;23.00;99.90;;;;;;5077813;28;20188;-75
2022/11/06 07:01:09;;;;;;;4.30;1.40;;;22.70;99.90;;;;;;5078512;28;20224;-71
2022/11/06 07:03:38;;;;;;;3.13;1.20;;;22.60;99.90;;;;;;5080103;28;20187;-74
2022/11/06 07:06:06;;;;;;;4.67;1.30;;;22.50;99.90;;;;;;5083215;28;20174;-75
2022/11/06 07:08:34;;;;;;;6.73;1.00;;;22.40;99.90;;;;;;5080928;28;20203;-75
2022/11/06 07:11:08;;;;;;;8.70;1.60;;;22.30;99.90;;;;;;5077308;28;20214;-72
2022/11/06 07:13:37;;;;;;;5.40;1.13;;;22.10;99.90;;;;;;5077208;28;20183;-73
2022/11/06 07:16:10;;;;;;;5.00;1.40;;;22.00;99.90;;;;;;5074259;28;20279;-71
2022/11/06 07:18:39;;;;;;;3.23;1.17;;;21.90;99.90;;;;;;5075273;28;20556;-71
2022/11/06 07:21:10;;;;;;;6.23;1.37;;;21.90;99.90;;;;;;5078167;28;20232;-73
2022/11/06 07:23:38;;;;;;;5.00;1.37;;;21.80;99.90;;;;;;5078777;28;20187;-73
2022/11/06 07:26:07;;;;;;;6.33;1.50;;;21.70;99.90;;;;;;5078920;28;20203;-74
2022/11/06 07:28:36;;;;;;;7.93;2.13;;;21.70;99.90;;;;;;5078331;28;20249;-70
2022/11/06 07:31:07;;;;;;;6.70;1.40;;;21.60;99.90;;;;;;5075912;28;20633;-69
2022/11/06 07:33:35;;;;;;;4.67;1.27;;;21.50;99.90;;;;;;5074822;28;20187;-73
2022/11/06 07:36:05;;;;;;;10.20;1.53;;;21.50;99.90;;;;;;5076839;28;20190;-73
2022/11/06 07:38:37;;;;;;;7.20;1.37;;;21.40;99.90;;;;;;5076605;28;20515;-71
2022/11/06 07:41:07;;;;;;;8.17;1.33;;;21.40;99.90;;;;;;5077195;28;20588;-72
2022/11/06 07:43:35;;;;;;;5.73;1.50;;;21.30;99.90;;;;;;5066691;28;20223;-70
2022/11/06 07:46:07;;;;;;;5.37;1.50;;;21.30;99.90;;;;;;5060055;28;20183;-73
2022/11/06 07:48:35;;;;;;;7.73;1.43;;;21.30;99.90;;;;;;5069176;28;20193;-74
2022/11/06 07:51:05;;;;;;;6.30;1.23;;;21.20;99.90;;;;;;5081370;28;20186;-71
2022/11/06 07:53:33;;;;;;;5.03;1.40;;;21.10;99.90;;;;;;5078741;28;20250;-69
2022/11/06 07:56:01;;;;;;;5.93;1.67;;;21.10;99.90;;;;;;5077284;28;20187;-72
2022/11/06 07:58:33;;;;;;;6.00;1.80;;;21.00;99.90;;;;;;5079679;28;20608;-73
2022/11/06 08:01:04;;;;;;;6.27;1.27;;;20.90;99.90;;;;;;5080107;28;21032;-72
2022/11/06 08:03:33;;;;;;;6.27;1.50;;;20.70;99.90;;;;;;5080856;28;20208;-77
2022/11/06 08:06:06;;;;;;;4.00;1.30;;;20.70;99.90;;;;;;5083028;28;20198;-78
2022/11/06 08:08:34;;;;;;;6.80;1.60;;;20.50;99.90;;;;;;5084516;28;20637;-78
2022/11/06 08:11:03;;;;;;;2.80;1.07;;;20.40;99.90;;;;;;5086230;28;20184;-77
2022/11/06 08:13:32;;;;;;;8.60;1.53;;;20.40;99.90;;;;;;5084549;28;20178;-79
2022/11/06 08:16:07;;;;;;;8.67;1.80;;;20.30;99.90;;;;;;5082608;28;20184;-77
2022/11/06 08:18:42;;;;;;;3.63;1.20;;;20.20;99.90;;;;;;5084706;28;20184;-77
2022/11/06 08:21:10;;;;;;;5.50;1.30;;;20.20;99.90;;;;;;5082723;28;20184;-76
2022/11/06 08:23:37;;;;;;;7.57;1.83;;;20.10;99.90;;;;;;5096569;28;20179;-76
2022/11/06 08:26:07;;;;;;;8.23;1.80;;;20.00;99.90;;;;;;5083246;28;20179;-78
2022/11/06 08:28:35;;;;;;;7.10;1.60;;;20.00;99.90;;;;;;5082302;28;20219;-78
2022/11/06 08:31:09;;;;;;;7.60;1.27;;;20.00;99.90;;;;;;5078770;28;20249;-69
2022/11/06 08:33:38;;;;;;;5.43;1.40;;;19.90;99.90;;;;;;5055365;28;20174;-74
2022/11/06 08:36:07;;;;;;;7.37;1.40;;;19.90;99.90;;;;;;5068014;28;20176;-73
2022/11/06 08:38:36;;;;;;;4.63;1.23;;;19.80;99.90;;;;;;5068518;28;20188;-68
2022/11/06 08:41:11;;;;;;;6.03;1.07;;;19.80;99.90;;;;;;5072251;28;20240;-68
2022/11/06 08:43:40;;;;;;;7.93;1.57;;;19.70;99.90;;;;;;5072190;28;20175;-67
2022/11/06 08:46:09;;;;;;;3.90;0.97;;;19.70;99.90;;;;;;5075045;28;20656;-68
2022/11/06 08:48:37;;;;;;;8.17;1.23;;;19.60;99.90;;;;;;5076081;28;20205;-68
2022/11/06 08:51:06;;;;;;;6.83;1.83;;;19.60;99.90;;;;;;5075984;28;20225;-68
2022/11/06 08:53:34;;;;;;;5.10;1.40;;;19.50;99.90;;;;;;5091441;28;20187;-69
2022/11/06 08:56:05;;;;;;;5.20;0.90;;;19.50;99.90;;;;;;5075776;28;20191;-68
2022/11/06 08:58:32;;;;;;;5.60;1.60;;;19.50;99.90;;;;;;5075842;28;20551;-69
2022/11/06 09:01:01;;;;;;;6.03;1.40;;;19.40;99.90;;;;;;5075581;28;20227;-70
2022/11/06 09:03:29;;;;;;;8.87;1.20;;;19.40;99.90;;;;;;5075753;28;20253;-69
2022/11/06 09:05:57;;;;;;;5.90;1.10;;;19.30;99.90;;;;;;5075755;28;20168;-69
2022/11/06 09:08:24;;;;;;;3.77;1.30;;;19.20;99.90;;;;;;5075504;28;20216;-69
2022/11/06 09:10:52;;;;;;;5.93;1.27;;;19.20;99.90;;;;;;5075558;28;20641;-69
2022/11/06 09:13:20;;;;;;;14.33;1.70;;;19.20;99.90;;;;;;5075689;28;20541;-69
2022/11/06 09:15:48;;;;;;;5.87;1.47;;;19.30;99.90;;;;;;5075528;28;20172;-68
2022/11/06 09:18:17;;;;;;;6.63;1.43;;;19.20;99.90;;;;;;5075551;28;20176;-69
2022/11/06 09:20:45;;;;;;;7.10;2.07;;;19.10;99.90;;;;;;5075354;28;20172;-68
2022/11/06 09:23:13;;;;;;;8.13;1.83;;;19.10;99.90;;;;;;5075368;28;20173;-72
2022/11/06 09:25:41;;;;;;;6.07;1.70;;;19.10;99.90;;;;;;5074121;28;20578;-68
2022/11/06 09:28:09;;;;;;;6.60;1.40;;;19.10;99.90;;;;;;5074972;28;20287;-68
2022/11/06 09:30:37;;;;;;;6.00;1.50;;;19.00;99.90;;;;;;5075142;28;20718;-69
2022/11/06 09:33:05;;;;;;;8.20;1.60;;;19.00;99.90;;;;;;5075246;28;20250;-67
2022/11/06 09:35:34;;;;;;;5.10;1.53;;;19.00;99.90;;;;;;5075171;28;20207;-71
2022/11/06 09:38:07;;;;;;;6.40;1.50;;;18.90;99.90;;;;;;5075379;28;20253;-69
2022/11/06 09:40:38;;;;;;;6.43;2.10;;;19.00;99.90;;;;;;5075737;28;20645;-72
2022/11/06 09:43:09;;;;;;;6.03;1.87;;;19.00;99.90;;;;;;5075196;28;20263;-70
2022/11/06 09:45:42;;;;;;;5.80;1.70;;;18.90;99.90;;;;;;5075084;28;20180;-72
2022/11/06 09:48:10;;;;;;;7.10;1.90;;;18.90;99.90;;;;;;5074825;28;20211;-71
2022/11/06 09:50:53;;;;;;;9.03;2.17;;;18.80;99.90;;;;;;5074913;28;20214;-71
2022/11/06 09:53:33;;;;;;;9.47;2.13;;;18.80;99.90;;;;;;5074657;28;20176;-72
2022/11/06 09:56:04;;;;;;;9.47;2.47;;;18.70;99.90;;;;;;5074496;28;20195;-71
2022/11/06 09:58:40;;;;;;;9.97;2.57;;;18.60;99.90;;;;;;5073158;28;20210;-72
2022/11/06 10:01:23;;;;;;;10.67;2.47;;;18.60;99.90;;;;;;5074579;28;20237;-71
2022/11/06 10:04:03;;;;;;;6.73;2.53;;;18.60;99.90;;;;;;5074687;28;20706;-71
2022/11/06 10:06:32;;;;;;;9.23;3.10;;;18.60;99.90;;;;;;5074724;28;20172;-73
2022/11/06 10:09:05;;;;;;;10.93;3.40;;;18.60;99.90;;;;;;5074503;28;20672;-73
2022/11/06 10:12:14;;;;;;;10.60;4.03;;;18.60;99.90;;;;;;5074595;28;20168;-72
2022/11/06 10:15:08;;;;;;;11.30;3.40;;;18.50;99.90;;;;;;5071599;28;20605;-70
2022/11/06 10:18:10;;;;;;;11.40;3.90;;;18.50;99.90;;;;;;5074482;28;20204;-74
2022/11/06 10:20:53;;;;;;;7.97;4.17;;;18.40;99.90;;;;;;5074638;28;20249;-73
2022/11/06 10:23:38;;;;;;;10.73;3.57;;;18.40;99.90;;;;;;5074103;28;20178;-72
2022/11/06 10:26:18;;;;;;;8.77;3.30;;;18.30;99.90;;;;;;5074253;28;20682;-72
2022/11/06 10:28:57;;;;;;;7.93;3.63;;;18.20;99.90;;;;;;5073473;28;20219;-70
2022/11/06 10:31:41;;;;;;;8.43;3.93;;;18.20;99.90;;;;;;5068689;28;20652;-72
2022/11/06 10:34:17;;;;;;;12.20;3.40;;;18.10;99.90;;;;;;5072856;28;20183;-70
2022/11/06 10:36:52;;;;;;;8.73;3.50;;;18.00;99.90;;;;;;5073692;28;20206;-73
2022/11/06 10:39:32;;;;;;;7.90;2.97;;;18.00;99.90;;;;;;5073840;28;20179;-73
2022/11/06 10:42:06;;;;;;;8.60;3.13;;;17.90;99.90;;;;;;5074174;28;20518;-70
2022/11/06 10:44:40;;;;;;;10.60;3.90;;;17.80;99.90;;;;;;5079716;28;20597;-74
2022/11/06 10:47:22;;;;;;;9.43;3.60;;;17.80;99.90;;;;;;5077947;28;20232;-72
2022/11/06 10:50:02;;;;;;;8.60;3.30;;;17.80;99.90;;;;;;5075190;28;20695;-72
2022/11/06 10:53:17;;;;;;;8.57;3.30;;;17.80;99.90;;;;;;5073969;28;20200;-73
2022/11/06 10:56:06;;;;;;;8.27;3.23;;;17.70;99.90;;;;;;5073875;28;20179;-74
2022/11/06 10:58:36;;;;;;;7.70;3.40;;;17.70;99.90;;;;;;5051167;28;20213;-72
2022/11/06 11:01:12;;;;;;;10.37;3.73;;;17.60;99.90;;;;;;5053974;28;20220;-73
2022/11/06 11:03:43;;;;;;;7.63;3.33;;;17.60;99.90;;;;;;5053665;28;20536;-69
2022/11/06 11:06:11;;;;;;;10.33;3.50;;;17.50;99.90;;;;;;5066239;28;20176;-69
2022/11/06 11:08:50;;;;;;;5.03;3.40;;;17.50;99.90;;;;;;5072537;28;20226;-69
2022/11/06 11:11:28;;;;;;;6.63;3.30;;;17.40;99.90;;;;;;5073453;28;20176;-70
2022/11/06 11:14:05;;;;;;;10.07;3.67;;;17.30;99.90;;;;;;5073115;28;20262;-70
2022/11/06 11:16:38;;;;;;;9.63;3.20;;;17.30;99.90;;;;;;5073278;28;20237;-71
2022/11/06 11:19:26;;;;;;;11.10;3.43;;;17.30;99.90;;;;;;5073486;28;20182;-69
2022/11/06 11:21:59;;;;;;;8.53;3.03;;;17.30;99.90;;;;;;5073316;28;20171;-68
2022/11/06 11:24:28;;;;;;;8.33;3.23;;;17.30;99.90;;;;;;5073354;28;20203;-69
2022/11/06 11:27:03;;;;;;;7.33;3.73;;;17.20;99.90;;;;;;5072895;28;20645;-69
2022/11/06 11:29:44;;;;;;;8.17;3.07;;;17.20;99.90;;;;;;5073203;28;20260;-70
2022/11/06 11:32:16;;;;;;;8.07;3.00;;;17.10;99.90;;;;;;5073166;28;20186;-69
2022/11/06 11:34:48;;;;;;;11.53;3.30;;;17.10;99.90;;;;;;5073363;28;20245;-69
2022/11/06 11:37:34;;;;;;;8.93;2.90;;;17.00;99.90;;;;;;5072958;28;20183;-69
2022/11/06 11:40:35;;;;;;;7.73;3.70;;;17.00;99.90;;;;;;5073403;28;20517;-68
2022/11/06 11:43:27;;;;;;;8.77;3.23;;;16.90;99.90;;;;;;5072973;28;20638;-68
2022/11/06 11:46:09;;;;;;;13.07;3.83;;;16.80;99.90;;;;;;5073468;28;20182;-68
2022/11/06 11:48:42;;;;;;;8.73;3.77;;;16.70;99.90;;;;;;5072942;28;20280;-73
2022/11/06 11:51:28;;;;;;;6.47;2.97;;;16.70;99.90;;;;;;5073375;28;20515;-73
2022/11/06 11:54:14;;;;;;;10.47;3.50;;;16.60;99.90;;;;;;5073071;28;20522;-72
2022/11/06 11:56:54;;;;;;;10.23;3.40;;;16.60;99.90;;;;;;5072942;28;20222;-73
2022/11/06 11:59:43;;;;;;;10.83;3.50;;;16.50;99.90;;;;;;5088837;28;20202;-70
2022/11/06 12:02:16;;;;;;;8.27;3.27;;;16.50;99.90;;;;;;5072653;28;20222;-72
2022/11/06 12:04:53;;;;;;;7.47;3.63;;;16.40;99.90;;;;;;5073103;28;20209;-72
2022/11/06 12:07:35;;;;;;;8.90;3.97;;;16.40;99.90;;;;;;5071323;28;20187;-70
2022/11/06 12:10:26;;;;;;;10.47;4.50;;;16.30;99.90;;;;;;5048391;28;20240;-70
2022/11/06 12:12:56;;;;;;;9.43;4.10;;;16.30;99.90;;;;;;5033109;28;20178;-70
2022/11/06 12:15:57;;;;;;;10.73;4.20;;;16.30;99.90;;;;;;5033078;28;20709;-70
2022/11/06 12:18:31;;;;;;;9.77;3.93;;;16.30;99.90;;;;;;5048165;28;20185;-70
2022/11/06 12:21:22;;;;;;;12.33;3.97;;;16.20;99.90;;;;;;5035617;28;20717;-70
2022/11/06 12:23:56;;;;;;;8.80;4.00;;;16.10;99.90;;;;;;5073417;28;20195;-71
2022/11/06 12:26:45;;;;;;;9.97;3.77;;;16.10;99.90;;;;;;5076265;28;20172;-71
2022/11/06 12:29:20;;;;;;;11.60;4.30;;;16.10;99.90;;;;;;5076680;28;20708;-68
2022/11/06 12:32:12;;;;;;;7.97;2.93;;;16.10;99.90;;;;;;5076278;28;20175;-71
2022/11/06 12:35:10;;;;;;;7.30;3.17;;;16.10;99.90;;;;;;5076126;28;20186;-71
2022/11/06 12:38:15;;;;;;;7.70;3.53;;;16.10;99.90;;;;;;5076216;28;20270;-73
2022/11/06 12:40:55;;;;;;;6.73;3.23;;;16.00;99.90;;;;;;5076639;28;20203;-69
2022/11/06 12:43:38;;;;;;;4.57;2.87;;;16.00;99.90;;;;;;5076346;28;20180;-68
2022/11/06 12:46:27;;;;;;;9.00;3.30;;;16.00;99.90;;;;;;5076050;28;20218;-68
2022/11/06 12:49:31;;;;;;;8.40;3.33;;;16.00;99.90;;;;;;5091586;28;20200;-67
2022/11/06 12:52:14;;;;;;;7.93;2.67;;;16.00;99.90;;;;;;5075862;28;20186;-69
2022/11/06 12:55:16;;;;;;;7.40;3.00;;;15.90;99.90;;;;;;5076391;28;20262;-68
2022/11/06 12:58:05;;;;;;;12.33;3.33;;;15.90;99.90;;;;;;5075589;28;20182;-69
2022/11/06 13:00:39;;;;;;;5.30;3.23;;;15.90;99.90;;;;;;5075767;28;20196;-69
2022/11/06 13:03:31;;;;;;;5.00;2.70;;;15.80;99.90;;;;;;5091353;28;20562;-69
2022/11/06 13:06:26;;;;;;;7.80;3.00;;;15.70;99.90;;;;;;5042568;28;20602;-69
2022/11/06 13:09:35;;;;;;;10.13;3.33;;;15.70;99.90;;;;;;5076317;28;20214;-69
2022/11/06 13:12:03;;;;;;;9.27;2.93;;;15.70;99.90;;;;;;5065333;28;20191;-69
2022/11/06 13:14:57;;;;;;;4.60;2.40;;;15.70;99.90;;;;;;5075615;28;20175;-70
2022/11/06 13:17:46;;;;;;;9.10;3.20;;;15.60;99.90;;;;;;5075393;28;20669;-69
2022/11/06 13:20:37;;;;;;;8.43;4.03;;;15.60;99.90;;;;;;5075866;28;20182;-69
2022/11/06 13:23:28;;;;;;;6.23;3.00;;;15.60;99.90;;;;;;5075485;28;20191;-69
2022/11/06 13:26:16;;;;;;;9.00;4.03;;;15.50;99.90;;;;;;5075453;28;20177;-68
2022/11/06 13:28:55;;;;;;;6.70;3.50;;;15.50;99.90;;;;;;5074960;28;20236;-68
2022/11/06 13:31:47;;;;;;;15.93;4.70;;;15.50;99.90;;;;;;5074281;28;20171;-69
2022/11/06 13:34:25;;;;;;;9.03;3.37;;;15.40;99.90;;;;;;5031526;28;20212;-69
2022/11/06 13:36:55;;;;;;;8.70;3.07;;;15.40;99.90;;;;;;5035205;28;20173;-69
2022/11/06 13:39:38;;;;;;;7.50;2.93;;;15.40;99.90;;;;;;5050411;28;20553;-69